首页
METAR-TAF:

METAR-TAF

机场 :

Beaver Falls, 宾夕法尼亚州, 美国

纬度: 40-46N, 经度: 080-24W, 海拔: 382米

当前天气观测

该预报发布于9分钟前的21:35 UTC
静风
温度 2°C
湿度 51%
气压 1029 hPa
能見度: 16.1公里
天空无云

METAR: KBVI 072135Z AUTO 00000KT 10SM CLR 02/M07 A3039 RMK AO2 T00181066

时间: 16:44 (21:44 UTC)

预报

该预报发布于4小时和17分钟前的17:27 UTC
预报有效从07日的 18点(UTC)到 08日的 18点(UTC)
风速2节,风向多变
能見度: 10公里
天空无云
从 08日的 1400点(UTC)
风速9节,风向,有时为15节阵风
能見度: 10公里
多云层高于25000英尺

TAF: KBVI 071727Z 0718/0818 VRB02KT P6SM SKC FM081400 17009G15KT P6SM BKN250

超过4000个机场的气象观测和天气预报(METAR&TAF报告)。

可查询的气象台以黄色和红色小点在地图上表示。

将鼠标移到小点上方,可查看气象台名称。

然后点击查看天气观测和预报。

如需切换地图:点击带黑十字的绿色按钮放大地图;点击带横线的绿色按钮缩小地图;或者点击绿色箭头查看邻近地区的地图。


METAR-TAF: